Time;durP1;ratioP1;P1;durP2;ratioP2;P2;SDS_P1;SDS_P2;PMS_P1;PMS_P2;Temp;Humidity;BMP_temperature;BMP_pressure;BME280_temperature;BME280_humidity;BME280_pressure;Samples;Min_cycle;Max_cycle;Signal;HPM_P1;HPM_P2
2022/12/28 00:12:24;;;;;;;28.40;12.90;;;;;;;4.44;98.38;100882.41;649258;1312;139555;-81
2022/12/28 00:27:28;;;;;;;22.00;7.40;;;;;;;4.48;98.07;100887.92;649734;1309;138860;-81
2022/12/28 00:42:31;;;;;;;19.60;9.00;;;;;;;4.51;98.20;100897.62;648093;1294;138495;-79
2022/12/28 00:57:36;;;;;;;29.30;13.70;;;;;;;4.48;98.38;100898.83;651264;1307;138664;-81
2022/12/28 01:12:39;;;;;;;34.00;11.40;;;;;;;4.22;97.92;100891.31;649180;1306;138796;-81
2022/12/28 01:27:42;;;;;;;20.10;8.30;;;;;;;3.96;98.00;100882.30;647947;1315;139051;-80
2022/12/28 01:42:45;;;;;;;18.10;7.00;;;;;;;3.79;98.58;100874.33;648556;1307;138416;-80
2022/12/28 01:57:58;;;;;;;17.10;7.70;;;;;;;3.70;99.05;100863.32;647512;1313;138630;-80
2022/12/28 02:13:03;;;;;;;18.60;7.70;;;;;;;3.56;99.68;100853.16;647055;1307;138055;-80
2022/12/28 02:28:40;;;;;;;16.00;7.20;;;;;;;3.45;100.00;100847.08;649412;1306;138984;-81
2022/12/28 02:43:44;;;;;;;17.70;7.70;;;;;;;3.29;100.00;100829.05;645461;1313;138948;-79
2022/12/28 02:59:03;;;;;;;35.40;18.10;;;;;;;3.19;100.00;100817.95;649212;1305;138602;-84
2022/12/28 03:14:26;;;;;;;17.20;9.80;;;;;;;3.24;100.00;100809.55;647277;1309;138994;-81
2022/12/28 03:45:09;;;;;;;33.90;16.20;;;;;;;3.31;100.00;100804.20;648552;1294;139358;-79
2022/12/28 04:00:13;;;;;;;24.80;12.20;;;;;;;3.32;100.00;100797.77;647542;1307;139460;-80
2022/12/28 04:15:21;;;;;;;31.30;14.40;;;;;;;3.31;100.00;100773.45;648072;1303;138957;-80
2022/12/28 04:30:25;;;;;;;26.30;13.70;;;;;;;3.28;100.00;100760.27;645757;1313;139203;-81
2022/12/28 04:45:30;;;;;;;27.60;13.70;;;;;;;3.37;100.00;100770.02;646223;1313;139345;-82
2022/12/28 05:00:33;;;;;;;37.70;17.40;;;;;;;3.39;100.00;100771.84;648021;1313;138724;-81
2022/12/28 05:15:37;;;;;;;43.50;19.60;;;;;;;3.43;100.00;100752.96;647560;1311;140335;-81
2022/12/28 05:30:40;;;;;;;39.20;20.20;;;;;;;3.41;100.00;100730.55;647570;1311;147514;-80
2022/12/28 05:45:43;;;;;;;41.50;20.20;;;;;;;3.33;100.00;100698.46;647806;1302;139291;-82
2022/12/28 06:00:46;;;;;;;56.80;30.60;;;;;;;3.28;100.00;100699.58;648467;1313;138961;-81
2022/12/28 06:15:49;;;;;;;93.10;45.80;;;;;;;3.35;100.00;100665.67;646896;1315;139409;-82
2022/12/28 06:31:01;;;;;;;44.80;20.40;;;;;;;3.31;100.00;100655.34;646762;1311;138572;-81
2022/12/28 06:46:05;;;;;;;40.80;17.90;;;;;;;3.32;100.00;100649.78;646705;1313;139353;-84
2022/12/28 07:01:11;;;;;;;36.00;17.20;;;;;;;3.30;100.00;100638.45;647192;1311;138952;-82
2022/12/28 07:16:20;;;;;;;33.40;18.10;;;;;;;3.38;100.00;100623.71;650729;1313;139478;-81
2022/12/28 07:31:30;;;;;;;30.70;15.40;;;;;;;3.36;100.00;100624.32;647446;1313;139029;-81
2022/12/28 07:46:37;;;;;;;43.60;23.50;;;;;;;3.41;100.00;100612.30;649996;1313;138712;-81
2022/12/28 08:01:40;;;;;;;40.00;18.10;;;;;;;3.46;100.00;100598.54;649028;1313;138643;-81
2022/12/28 08:16:44;;;;;;;212.60;73.70;;;;;;;3.63;100.00;100581.23;648157;1291;139034;-82
2022/12/28 08:31:47;;;;;;;48.70;30.50;;;;;;;3.76;100.00;100575.80;650781;1299;138461;-83
2022/12/28 08:46:53;;;;;;;24.10;12.10;;;;;;;3.90;100.00;100545.15;655399;1312;139166;-81
2022/12/28 09:01:56;;;;;;;28.60;13.50;;;;;;;4.10;100.00;100534.48;652321;1307;138857;-80
2022/12/28 09:17:02;;;;;;;34.50;16.10;;;;;;;4.29;100.00;100525.30;653392;1306;139455;-82
2022/12/28 09:32:06;;;;;;;25.40;10.80;;;;;;;4.41;99.91;100518.01;650452;1313;138961;-81
2022/12/28 09:47:16;;;;;;;25.80;12.30;;;;;;;4.60;98.73;100509.11;650116;1313;139047;-82
2022/12/28 10:02:31;;;;;;;32.30;22.40;;;;;;;4.67;96.69;100480.23;651147;1312;138401;-81
2022/12/28 10:17:35;;;;;;;27.20;13.60;;;;;;;4.82;94.96;100449.23;652049;1313;139068;-82
2022/12/28 10:35:51;;;;;;;43.40;21.60;;;;;;;5.04;92.49;100419.11;634994;1340;569363;-83
2022/12/28 10:50:56;;;;;;;20.40;11.20;;;;;;;5.16;91.11;100396.45;648093;1318;138756;-84
2022/12/28 11:06:13;;;;;;;26.80;16.60;;;;;;;5.45;90.42;100346.94;649289;1317;138908;-83
